Etusivu
METAR-TAF:

METAR-TAF

Lentoasemat :

Tunis, Tunisia

Leveyspiiri: 36-50N, Pituuspiiri: 010-14E, korkeus merenpinnasta: 3 m

Tämänhetkinen sää

Tämä raportti tehtiin 28 minuuttia sitten, kello 06.30 UTC
Tuuli 9 kn lännestä/luoteesta
Lämpötila 12°C
Kosteus 76%
Ilmanpaine 1016 hPa
Näkyvyys 10 km tai enemmän
Muutamia pilviä 2600 ft:n korkeudessa

METAR: DTTA 200630Z 30009KT 9999 FEW026 12/08 Q1016 NOSIG

Aika: 07:58 (06:58 UTC)

Sääennuste

Tämä raportti tehtiin 1 tunti ja 58 minuuttia sitten, kello 05.00 UTC
Ennuste voimassa 20. päivästä klo 06 UTC - 21. päivään klo 06 UTC
Tuuli 10 kn luoteesta puuskistuen 25 kn:hen
Näkyvyys 10 km tai enemmän
Muutamia pilviä 2600 ft:n korkeudessa
Ajoittain
20. päivästä klo 06 UTC - 20. päivään klo 18 UTC
Tuuli 25 kn pohjoisen/luoteesta puuskistuen 35 kn:hen
Tulossa
20. päivästä klo 17 UTC - 20. päivään klo 19 UTC
Tuuli 12 kn lännestä

TAF: DTTA 200500Z 2006/2106 32010G25KT 9999 FEW026 TEMPO 2006/2018 33025G35KT BECMG 2017/2019 26012KT

Säähavainnot ja -ennusteet yli 4000 lentoasemalta (METAR- ja TAF-raportit).

Käytössä olevat sääasemat on merkitty karttaan keltaisilla ja punaisilla pisteillä.

Aseta hiiri pisteen päälle nähdäksesi sääaseman nimen.

Klikkaa sitten nähdäksesi säähavainnot ja -ennusteet.

Kartan vaihtaminen: klikkaa mustalla rastilla varustettuja vihreitä pisteitä, niin voit zoomata sisään; viivalla varustettua vihreää pistettä, niin voit zoomata ulos tai vihreitä nuolia, niin pääset viereisille kartoille.


METAR-TAF: